Time;durP1;ratioP1;P1;durP2;ratioP2;P2;SDS_P1;SDS_P2;PMS_P1;PMS_P2;Temp;Humidity;BMP_temperature;BMP_pressure;BME280_temperature;BME280_humidity;BME280_pressure;Samples;Min_cycle;Max_cycle;Signal;HPM_P1;HPM_P2
2023/08/29 00:00:48;;;;;;;16.17;8.10;;;;;;;;;;5076959;28;20126;-82
2023/08/29 00:03:14;;;;;;;13.38;7.90;;;;;;;;;;5076776;28;20025;-83
2023/08/29 00:05:40;;;;;;;16.95;9.02;;;;;;;;;;5075191;28;20052;-80
2023/08/29 00:08:06;;;;;;;14.40;8.52;;;;;;;;;;5074360;28;20020;-81
2023/08/29 00:10:32;;;;;;;14.23;9.35;;;;;;;;;;5075357;28;20068;-83
2023/08/29 00:12:58;;;;;;;21.48;9.90;;;;;;;;;;5074542;28;20020;-81
2023/08/29 00:15:25;;;;;;;17.10;9.75;;;;;;;;;;5074306;28;20032;-82
2023/08/29 00:17:51;;;;;;;20.98;10.15;;;;;;;;;;5074396;28;20021;-80
2023/08/29 00:20:16;;;;;;;19.70;10.60;;;640.80;2432.00;;;;;;5074286;28;20106;-83
2023/08/29 00:22:42;;;;;;;16.60;9.82;;;640.60;2432.00;;;;;;5074245;28;20032;-81
2023/08/29 00:25:08;;;;;;;14.82;10.00;;;640.40;2432.00;;;;;;5074378;28;20470;-79
2023/08/29 00:27:34;;;;;;;18.25;10.38;;;640.40;2432.00;;;;;;5076285;28;20123;-81
2023/08/29 00:30:04;;;;;;;18.40;10.52;;;;;;;;;;5058630;28;20060;-81
2023/08/29 00:32:30;;;;;;;19.42;10.85;;;;;;;;;;5076609;28;20048;-80
2023/08/29 00:34:57;;;;;;;14.98;9.60;;;;;;;;;;5076383;28;20021;-81
2023/08/29 00:37:23;;;;;;;14.63;9.52;;;;;;;;;;5058279;28;20123;-80
2023/08/29 00:39:49;;;;;;;17.25;9.70;;;;;;;;;;5076533;28;20039;-81
2023/08/29 00:42:15;;;;;;;17.98;10.10;;;;;;;;;;5076320;28;20028;-80
2023/08/29 00:44:41;;;;;;;18.20;9.80;;;;;;;;;;5076389;28;20051;-83
2023/08/29 00:47:08;;;;;;;19.58;9.80;;;;;;;;;;5075840;28;20383;-83
2023/08/29 00:49:33;;;;;;;18.60;9.38;;;640.40;2432.00;;;;;;5057786;28;20062;-80
2023/08/29 00:52:02;;;;;;;19.40;9.90;;;640.10;2432.00;;;;;;5075801;28;20036;-81
2023/08/29 00:54:28;;;;;;;18.98;9.52;;;640.10;2432.00;;;;;;5075599;28;20028;-83
2023/08/29 00:56:53;;;;;;;20.00;9.95;;;640.00;2432.00;;;;;;5075605;28;20032;-82
2023/08/29 00:59:20;;;;;;;19.45;9.70;;;;;;;;;;5075546;28;20027;-82
2023/08/29 01:01:47;;;;;;;20.27;9.80;;;;;;;;;;5075664;28;20099;-83
2023/08/29 01:04:13;;;;;;;18.73;9.40;;;640.00;2432.00;;;;;;5075375;28;20060;-81
2023/08/29 01:06:41;;;;;;;17.95;8.88;;;615.30;2432.00;;;;;;5057497;28;20025;-82
2023/08/29 01:09:09;;;;;;;17.33;9.57;;;615.20;2432.00;;;;;;5056862;28;20051;-82
2023/08/29 01:11:40;;;;;;;16.45;9.60;;;615.20;2432.00;;;;;;5075130;28;20588;-84
2023/08/29 01:14:38;;;;;;;17.73;9.45;;;615.20;2432.00;;;;;;5058288;28;20470;-83
2023/08/29 01:17:24;;;;;;;17.83;9.02;;;;;;;;;;5076200;28;20031;-84
2023/08/29 01:19:52;;;;;;;19.63;9.77;;;;;;;;;;5057486;28;20045;-84
2023/08/29 01:22:24;;;;;;;20.88;10.65;;;;;;;;;;5075701;28;20029;-83
2023/08/29 01:25:10;;;;;;;20.90;10.30;;;;;;;;;;5075922;28;20024;-83
2023/08/29 01:27:37;;;;;;;22.90;10.55;;;;;;;;;;5073775;28;20107;-82
2023/08/29 01:30:04;;;;;;;17.30;9.77;;;;;;;;;;5056946;28;20394;-82
2023/08/29 01:32:33;;;;;;;20.20;10.95;;;;;;;;;;5057597;28;20411;-84
2023/08/29 01:34:59;;;;;;;23.17;10.32;;;;;;;;;;5075824;28;20478;-83
2023/08/29 01:37:25;;;;;;;19.02;10.23;;;;;;;;;;5056768;28;20036;-85
2023/08/29 01:39:51;;;;;;;20.88;10.40;;;;;;;;;;5075182;28;20021;-82
2023/08/29 01:42:17;;;;;;;20.30;9.77;;;;;;;;;;5075379;28;20024;-82
2023/08/29 01:44:43;;;;;;;18.30;9.73;;;;;;;;;;5075615;28;20056;-83
2023/08/29 01:47:10;;;;;;;22.35;9.80;;;;;;;;;;5075476;28;20374;-84
2023/08/29 01:49:37;;;;;;;18.25;9.35;;;;;;;;;;5057071;28;20036;-83
2023/08/29 01:52:05;;;;;;;21.90;9.57;;;;;;;;;;5057415;28;20131;-80
2023/08/29 01:54:31;;;;;;;19.75;9.77;;;;;;;;;;5074996;28;20021;-83
2023/08/29 01:56:58;;;;;;;17.45;10.27;;;;;;;;;;5057064;28;20497;-83
2023/08/29 01:59:25;;;;;;;28.38;10.35;;;;;;;;;;5074672;28;20103;-81
2023/08/29 02:01:51;;;;;;;19.55;10.50;;;;;;;;;;5074566;28;20020;-81
2023/08/29 02:04:17;;;;;;;18.63;9.80;;;;;;;;;;5056982;28;20489;-81
2023/08/29 02:06:44;;;;;;;21.90;10.00;;;;;;;;;;5074550;28;20363;-81
2023/08/29 02:09:11;;;;;;;22.80;10.73;;;;;;;;;;5085001;28;20013;-81
2023/08/29 02:11:37;;;;;;;18.00;9.93;;;;;;;;;;5083086;28;20058;-81
2023/08/29 02:14:21;;;;;;;20.55;9.88;;;;;;;;;;5094285;28;20474;-80
2023/08/29 02:16:47;;;;;;;20.52;9.43;;;;;;;;;;5093136;28;20064;-81
2023/08/29 02:19:13;;;;;;;17.75;9.23;;;;;;;;;;5094341;28;20081;-80
2023/08/29 02:21:39;;;;;;;20.52;9.48;;;;;;;;;;5075585;28;20035;-80
2023/08/29 02:24:05;;;;;;;17.17;9.65;;;;;;;;;;5075341;28;20485;-81
2023/08/29 02:26:32;;;;;;;16.80;9.07;;;;;;;;;;5094617;28;20054;-80
2023/08/29 02:28:58;;;;;;;15.60;9.20;;;;;;;;;;5075386;28;20032;-81
2023/08/29 02:31:25;;;;;;;20.08;9.55;;;;;;;;;;5093697;28;20131;-81
2023/08/29 02:33:53;;;;;;;15.90;9.43;;;;;;;;;;5091969;28;20050;-81
2023/08/29 02:36:19;;;;;;;17.27;8.90;;;;;;;;;;5094158;28;20028;-81
2023/08/29 02:38:45;;;;;;;18.35;9.30;;;;;;;;;;5092995;28;20024;-81
2023/08/29 02:41:12;;;;;;;24.08;10.23;;;;;;;;;;5090325;28;20056;-80
2023/08/29 02:43:38;;;;;;;18.13;10.15;;;;;;;;;;5092157;28;20054;-82
2023/08/29 02:46:04;;;;;;;20.70;10.00;;;;;;;;;;5092160;28;20046;-81
2023/08/29 02:48:30;;;;;;;18.38;10.07;;;;;;;;;;5092452;28;20024;-82
2023/08/29 02:50:57;;;;;;;21.02;9.98;;;;;;;;;;5093457;28;20032;-81
2023/08/29 02:53:23;;;;;;;16.80;10.07;;;;;;;;;;5093437;28;20032;-81
2023/08/29 02:55:52;;;;;;;18.00;11.20;;;;;;;;;;5094257;28;20394;-79
2023/08/29 02:58:19;;;;;;;18.75;10.32;;;;;;;;;;5094123;28;20161;-81
2023/08/29 03:01:00;;;;;;;21.40;11.15;;;;;;;;;;5075659;28;20488;-81
2023/08/29 03:03:26;;;;;;;23.40;10.98;;;;;;;;;;5094181;28;20029;-81
2023/08/29 03:05:56;;;;;;;19.60;11.27;;;;;;;;;;5093924;28;20024;-80
2023/08/29 03:08:22;;;;;;;22.92;10.73;;;;;;;;;;5093865;28;20114;-81
2023/08/29 03:10:50;;;;;;;21.13;11.25;;;;;;;;;;5093793;28;20020;-80
2023/08/29 03:13:17;;;;;;;19.48;11.35;;;;;;;;;;5094014;28;20035;-82
2023/08/29 03:15:45;;;;;;;23.38;11.63;;;;;;;;;;5093926;28;20024;-80
2023/08/29 03:18:11;;;;;;;25.20;11.98;;;;;;;;;;5075261;28;20020;-82
2023/08/29 03:20:44;;;;;;;24.30;12.25;;;;;;;;;;5093983;28;20047;-81
2023/08/29 03:23:10;;;;;;;23.48;12.20;;;;;;;;;;5094328;28;20028;-82
2023/08/29 03:25:37;;;;;;;21.65;11.93;;;;;;;;;;5076525;28;20122;-82
2023/08/29 03:28:03;;;;;;;18.25;11.45;;;;;;;;;;5076050;28;20047;-81
2023/08/29 03:30:31;;;;;;;22.38;12.45;;;;;;;;;;5094502;28;20031;-80
2023/08/29 03:32:57;;;;;;;29.33;12.10;;;;;;;;;;5075879;28;20102;-81
2023/08/29 03:35:24;;;;;;;19.70;11.85;;;;;;;;;;5095033;28;20481;-80
2023/08/29 03:37:50;;;;;;;22.63;12.65;;;;;;;;;;5096740;28;20027;-79
2023/08/29 03:40:16;;;;;;;17.92;12.57;;;589.40;2432.00;;;;;;5096864;28;20020;-78
2023/08/29 03:42:42;;;;;;;24.05;12.27;;;;;;;;;;5074939;28;20058;-78
2023/08/29 03:45:08;;;;;;;22.30;12.98;;;;;;;;;;5092175;28;20040;-79
2023/08/29 03:47:34;;;;;;;20.35;12.50;;;;;;;;;;5077521;28;20028;-78
2023/08/29 03:50:02;;;;;;;22.77;12.15;;;;;;;;;;5096442;28;20024;-79
2023/08/29 03:52:29;;;;;;;25.23;12.70;;;;;;;;;;5096247;28;20047;-79
2023/08/29 03:54:55;;;;;;;22.85;12.85;;;;;;;;;;5087611;28;20070;-79
2023/08/29 03:57:22;;;;;;;22.42;12.93;;;;;;;;;;5069240;28;20113;-79
2023/08/29 03:59:48;;;;;;;24.90;12.90;;;;;;;;;;5055095;28;20044;-78
2023/08/29 04:02:16;;;;;;;19.30;12.30;;;;;;;;;;5072692;28;20024;-78
2023/08/29 04:04:45;;;;;;;22.95;12.52;;;;;;;;;;5075775;28;20115;-78
2023/08/29 04:07:11;;;;;;;24.95;13.15;;;;;;;;;;5075064;28;20036;-78
2023/08/29 04:09:38;;;;;;;22.50;12.77;;;;;;;;;;5074427;28;20017;-78
2023/08/29 04:12:07;;;;;;;21.23;12.93;;;;;;;;;;5074915;28;20036;-78
2023/08/29 04:14:33;;;;;;;20.73;13.38;;;;;;;;;;5056980;28;20061;-77
2023/08/29 04:16:59;;;;;;;26.27;14.15;;;;;;;;;;5054334;28;20429;-77
2023/08/29 04:19:25;;;;;;;21.40;13.77;;;;;;;;;;5055926;28;20378;-77
2023/08/29 04:21:51;;;;;;;23.85;14.15;;;;;;;;;;5075186;28;20024;-77
2023/08/29 04:24:17;;;;;;;28.98;16.48;;;;;;;;;;5074283;28;20021;-77
2023/08/29 04:26:43;;;;;;;36.03;21.63;;;;;;;;;;5073671;28;20030;-77
2023/08/29 04:29:10;;;;;;;33.38;20.38;;;;;;;;;;5052430;28;20435;-76
2023/08/29 04:31:36;;;;;;;30.80;18.08;;;;;;;;;;5055444;28;20052;-75
2023/08/29 04:34:02;;;;;;;28.70;18.15;;;;;;;;;;5075937;28;20021;-79
2023/08/29 04:36:28;;;;;;;27.80;19.50;;;;;;;;;;5056907;28;20032;-79
2023/08/29 04:38:54;;;;;;;30.45;17.67;;;;;;;;;;5054814;28;20021;-76
2023/08/29 04:41:20;;;;;;;26.45;17.58;;;;;;;;;;5071444;28;20090;-77
2023/08/29 04:43:46;;;;;;;25.48;16.13;;;;;;;;;;5054076;28;20028;-77
2023/08/29 04:46:14;;;;;;;23.70;15.63;;;;;;;;;;5071379;28;20024;-79
2023/08/29 04:48:40;;;;;;;22.42;14.63;;;;;;;;;;5057275;28;20107;-76
2023/08/29 04:51:06;;;;;;;26.05;15.20;;;;;;;;;;5074585;28;20024;-76
2023/08/29 04:53:32;;;;;;;26.98;18.10;;;;;;;;;;5055672;28;20116;-76
2023/08/29 04:56:02;;;;;;;32.60;19.45;;;;;;;;;;5075231;28;20467;-79
2023/08/29 04:58:30;;;;;;;29.77;18.20;;;;;;;;;;5074295;28;20028;-77
2023/08/29 05:01:05;;;;;;;27.27;18.40;;;;;;;;;;5054168;28;20108;-77
2023/08/29 05:03:31;;;;;;;25.05;16.13;;;;;;;;;;5073444;28;20044;-78
2023/08/29 05:05:57;;;;;;;23.10;14.35;;;;;;;;;;5074549;28;20020;-78
2023/08/29 05:08:23;;;;;;;21.33;14.15;;;;;;;;;;5074804;28;20103;-78
2023/08/29 05:10:49;;;;;;;22.70;13.20;;;;;;;;;;5074840;28;20370;-79
2023/08/29 05:13:16;;;;;;;22.23;13.52;;;;;;;;;;5053565;28;20546;-76
2023/08/29 05:15:44;;;;;;;20.83;12.93;;;;;;;;;;5066342;28;20025;-77
2023/08/29 05:18:10;;;;;;;21.48;13.77;;;;;;;;;;5053300;28;20025;-78
2023/08/29 05:20:38;;;;;;;21.05;12.73;;;;;;;;;;5073500;28;20020;-78
2023/08/29 05:23:04;;;;;;;23.30;12.93;;;;;;;;;;5074023;28;20493;-77
2023/08/29 05:25:31;;;;;;;24.25;13.80;;;;;;;;;;5074173;28;20066;-76
2023/08/29 05:27:57;;;;;;;27.65;14.27;;;;;;;;;;5052702;28;20032;-78
2023/08/29 05:30:23;;;;;;;20.73;13.05;;;;;;;;;;5070999;28;20036;-77
2023/08/29 05:32:49;;;;;;;28.55;13.55;;;;;;;;;;5073649;28;20048;-77
2023/08/29 05:35:18;;;;;;;22.95;13.00;;;;;;;;;;5073713;28;20055;-77
2023/08/29 05:37:44;;;;;;;22.35;14.00;;;;;;;;;;5073996;28;20030;-76
2023/08/29 05:40:10;;;;;;;22.55;13.52;;;;;;;;;;5052619;28;20029;-77
2023/08/29 05:42:36;;;;;;;22.15;13.88;;;;;;;;;;5055487;28;20124;-77
2023/08/29 05:45:03;;;;;;;25.63;13.63;;;;;;;;;;5074120;28;20375;-78
2023/08/29 05:47:32;;;;;;;21.38;13.65;;;;;;;;;;5073745;28;20029;-79
2023/08/29 05:50:00;;;;;;;20.95;13.48;;;;;;;;;;5052545;28;20021;-77
2023/08/29 05:52:26;;;;;;;21.73;14.18;;;;;;;;;;5071954;28;20459;-78
2023/08/29 05:54:52;;;;;;;21.40;13.30;;;;;;;;;;5072942;28;20463;-77
2023/08/29 05:57:18;;;;;;;23.45;14.07;;;;;;;;;;5073425;28;20058;-77
2023/08/29 05:59:44;;;;;;;23.25;14.25;;;;;;;;;;5072296;28;20025;-80
2023/08/29 06:02:11;;;;;;;20.55;12.60;;;;;;;;;;5072360;28;20047;-81
2023/08/29 06:04:37;;;;;;;19.38;12.98;;;;;;;;;;5072034;28;20029;-77
2023/08/29 06:07:04;;;;;;;19.77;12.45;;;;;;;;;;5050966;28;20075;-78
2023/08/29 06:09:33;;;;;;;20.40;12.15;;;;;;;;;;5052893;28;20021;-77
2023/08/29 06:11:59;;;;;;;21.10;12.27;;;;;;;;;;5050760;28;20806;-78
2023/08/29 06:14:25;;;;;;;16.40;10.70;;;;;;;;;;5069995;28;20021;-78
2023/08/29 06:16:51;;;;;;;22.00;11.40;;;;;;;;;;5050456;28;20032;-78
2023/08/29 06:19:17;;;;;;;22.63;11.75;;;;;;;;;;5050737;28;20028;-77
2023/08/29 06:21:44;;;;;;;19.17;12.63;;;;;;;;;;5050638;28;20037;-78
2023/08/29 06:24:10;;;;;;;17.33;12.30;;;;;;;;;;5067800;28;20155;-78
2023/08/29 06:26:37;;;;;;;17.65;12.70;;;;;;;;;;5072330;28;20086;-79
2023/08/29 06:29:03;;;;;;;21.58;12.57;;;;;;;;;;5050363;28;20029;-78
2023/08/29 06:31:29;;;;;;;21.00;12.15;;;;;;;;;;5070183;28;20057;-78
2023/08/29 06:33:55;;;;;;;19.27;12.15;;;;;;;;;;5050452;28;20074;-79
2023/08/29 06:36:22;;;;;;;19.33;11.77;;;;;;;;;;5069112;28;20048;-79
2023/08/29 06:38:48;;;;;;;20.10;11.27;;;;;;;;;;5050723;28;20116;-79
2023/08/29 06:41:14;;;;;;;18.70;11.98;;;;;;;;;;5052159;28;20035;-79
2023/08/29 06:43:40;;;;;;;23.45;11.98;;;;;;;;;;5073457;28;20063;-78
2023/08/29 06:46:25;;;;;;;16.30;11.32;;;;;;;;;;5073350;28;20024;-79
2023/08/29 06:48:51;;;;;;;18.30;10.88;;;;;;;;;;5072789;28;20442;-80
2023/08/29 06:51:20;;;;;;;19.27;10.82;;;;;;;;;;5052279;28;20479;-77
2023/08/29 06:53:49;;;;;;;18.27;10.27;;;;;;;;;;5073558;28;20021;-79
2023/08/29 06:56:15;;;;;;;19.35;10.52;;;;;;;;;;5073629;28;20036;-79
2023/08/29 06:58:41;;;;;;;16.02;10.10;;;;;;;;;;5072846;28;20032;-79
2023/08/29 07:01:07;;;;;;;21.67;10.20;;;;;;;;;;5072706;28;20050;-78
2023/08/29 07:03:32;;;;;;;14.38;9.80;;;589.30;2432.00;;;;;;5053678;28;20509;-78
2023/08/29 07:05:59;;;;;;;16.83;9.60;;;589.20;2432.00;;;;;;5051459;28;20033;-78
2023/08/29 07:08:25;;;;;;;16.58;10.20;;;588.90;2432.00;;;;;;5072810;28;20021;-78
2023/08/29 07:10:50;;;;;;;20.17;9.85;;;588.80;2432.00;;;;;;5074864;28;20031;-77
2023/08/29 07:13:16;;;;;;;20.90;9.45;;;564.10;2432.00;;;;;;5074724;28;20386;-77
2023/08/29 07:15:42;;;;;;;15.98;9.70;;;564.10;2432.00;;;;;;5074700;28;20385;-78
2023/08/29 07:18:07;;;;;;;16.45;9.13;;;588.80;2432.00;;;;;;5054049;28;20033;-78
2023/08/29 07:20:33;;;;;;;18.77;9.85;;;588.80;2432.00;;;;;;5074064;28;20107;-78
2023/08/29 07:22:59;;;;;;;15.77;9.38;;;588.80;2432.00;;;;;;5075203;28;20031;-78
2023/08/29 07:25:43;;;;;;;17.60;10.05;;;588.80;2432.00;;;;;;5074992;28;20021;-78
2023/08/29 07:28:10;;;;;;;;;;;564.10;2432.00;;;;;;5054031;28;20047;-78
2023/08/29 07:30:45;;;;;;;20.30;10.73;;;564.10;2124.80;;;;;;5074180;28;19904;-79
2023/08/29 07:33:12;;;;;;;16.38;9.77;;;588.80;2432.00;;;;;;5076271;28;20513;-77
2023/08/29 07:35:41;;;;;;;17.50;10.45;;;588.80;2432.00;;;;;;5076952;28;20074;-78
2023/08/29 07:38:08;;;;;;;19.92;10.02;;;588.80;2252.80;;;;;;5075696;28;20025;-79
2023/08/29 07:40:34;;;;;;;18.08;10.52;;;588.80;2432.00;;;;;;5057626;28;20051;-77
2023/08/29 07:43:04;;;;;;;18.45;10.55;;;588.90;2432.00;;;;;;5054864;28;20075;-77
2023/08/29 07:45:31;;;;;;;19.15;10.98;;;588.80;2355.20;;;;;;5074754;28;20024;-79
2023/08/29 07:47:56;;;;;;;18.80;10.45;;;589.00;2432.00;;;;;;5054986;28;20027;-82
2023/08/29 07:50:22;;;;;;;17.63;10.48;;;589.00;2048.00;;;;;;5073694;28;20090;-79
2023/08/29 07:52:48;;;;;;;20.55;10.68;;;;;;;;;;5055058;28;20033;-77
2023/08/29 07:55:14;;;;;;;14.75;10.35;;;589.50;2432.00;;;;;;5055118;28;20037;-82
2023/08/29 07:57:40;;;;;;;17.25;10.25;;;589.40;2432.00;;;;;;5058198;28;20086;-79
2023/08/29 08:00:10;;;;;;;16.55;9.45;;;589.30;2432.00;;;;;;5075709;28;20024;-79
2023/08/29 08:02:39;;;;;;;15.13;9.32;;;589.30;2432.00;;;;;;5075509;28;20425;-79
2023/08/29 08:05:10;;;;;;;13.93;8.43;;;589.30;2432.00;;;;;;5075853;28;20044;-80
2023/08/29 08:07:37;;;;;;;12.60;8.02;;;589.40;2432.00;;;;;;5076654;28;20071;-81
2023/08/29 08:10:04;;;;;;;13.63;8.10;;;;;;;;;;5056046;28;20020;-82
2023/08/29 08:12:31;;;;;;;15.40;7.63;;;614.40;2432.00;;;;;;5057569;28;20506;-82
2023/08/29 08:14:59;;;;;;;10.38;7.75;;;614.50;2432.00;;;;;;5076081;28;20024;-79
2023/08/29 08:17:25;;;;;;;16.83;7.90;;;;;;;;;;5054025;28;20068;-79
2023/08/29 08:19:51;;;;;;;11.73;7.70;;;614.70;2432.00;;;;;;5053038;28;20068;-81
2023/08/29 08:22:19;;;;;;;12.98;7.35;;;;;;;;;;5070564;28;20051;-80
2023/08/29 08:24:45;;;;;;;13.43;7.60;;;;;;;;;;5073676;28;20611;-79
2023/08/29 08:27:11;;;;;;;12.90;7.55;;;;;;;;;;5073755;28;20032;-79
2023/08/29 08:29:37;;;;;;;10.50;7.15;;;615.20;2432.00;;;;;;5055314;28;20040;-80
2023/08/29 08:32:03;;;;;;;12.25;7.50;;;615.10;2432.00;;;;;;5073499;28;20044;-80
2023/08/29 08:34:29;;;;;;;14.60;8.07;;;615.30;2432.00;;;;;;5072814;28;20420;-80
2023/08/29 08:36:54;;;;;;;18.77;7.97;;;640.10;2432.00;;;;;;5073696;28;20043;-81
2023/08/29 08:39:21;;;;;;;16.85;7.88;;;640.00;2432.00;;;;;;5074318;28;20107;-82
2023/08/29 08:41:47;;;;;;;14.57;7.38;;;640.60;2432.00;;;;;;5074872;28;20883;-83
2023/08/29 08:44:17;;;;;;;11.30;7.32;;;640.80;2432.00;;;;;;5074657;28;20070;-84
2023/08/29 08:47:01;;;;;;;12.43;7.50;;;640.60;2432.00;;;;;;5074217;28;20035;-81
2023/08/29 08:49:27;;;;;;;16.35;7.50;;;640.30;2432.00;;;;;;5054484;28;20021;-82
2023/08/29 08:51:53;;;;;;;12.75;7.32;;;640.60;2432.00;;;;;;5076269;28;20098;-83
2023/08/29 08:54:19;;;;;;;13.93;7.10;;;666.20;2432.00;;;;;;5076759;28;20016;-83
2023/08/29 08:56:46;;;;;;;11.70;7.18;;;666.30;2432.00;;;;;;5076224;28;20047;-83
2023/08/29 08:59:12;;;;;;;15.25;7.20;;;666.50;2432.00;;;;;;5054713;28;20033;-81
2023/08/29 09:01:38;;;;;;;13.15;6.63;;;666.50;2432.00;;;;;;5075504;28;20040;-81
2023/08/29 09:04:07;;;;;;;9.27;6.60;;;691.80;2432.00;;;;;;5075922;28;20051;-84
2023/08/29 09:06:35;;;;;;;14.02;7.30;;;691.70;2432.00;;;;;;5056359;28;20044;-81
2023/08/29 09:09:24;;;;;;;12.45;6.65;;;691.60;2432.00;;;;;;5075163;28;20029;-81
2023/08/29 09:11:55;;;;;;;11.30;6.47;;;691.50;2432.00;;;;;;5054321;28;20041;-81
2023/08/29 09:14:22;;;;;;;10.75;6.32;;;691.70;2432.00;;;;;;5055580;28;20032;-83
2023/08/29 09:16:56;;;;;;;12.65;6.38;;;691.70;2432.00;;;;;;5075424;28;20036;-79
2023/08/29 09:19:22;;;;;;;11.52;5.75;;;691.80;2432.00;;;;;;5054951;28;20562;-80
2023/08/29 09:21:50;;;;;;;11.65;6.78;;;691.70;2432.00;;;;;;5073618;28;20043;-82
2023/08/29 09:24:29;;;;;;;11.10;6.40;;;716.90;2432.00;;;;;;5074911;28;20012;-81
2023/08/29 09:26:58;;;;;;;14.48;6.15;;;;;;;;;;5075275;28;20093;-81
2023/08/29 09:29:29;;;;;;;11.30;6.07;;;717.50;2432.00;;;;;;5074318;28;20021;-82
2023/08/29 09:31:58;;;;;;;10.70;5.97;;;717.00;2432.00;;;;;;5074335;28;20048;-81
2023/08/29 09:34:30;;;;;;;9.10;5.60;;;;;;;;;;5075011;28;20110;-82
2023/08/29 09:36:59;;;;;;;10.07;5.03;;;;;;;;;;5053356;28;20037;-81
2023/08/29 09:39:27;;;;;;;10.80;5.60;;;;;;;;;;5072337;28;20086;-81
2023/08/29 09:42:10;;;;;;;11.32;5.25;;;742.80;2380.80;;;;;;5074953;28;20025;-81
2023/08/29 09:44:40;;;;;;;7.65;4.60;;;742.50;2355.20;;;;;;5055306;28;20128;-81
2023/08/29 09:47:10;;;;;;;6.75;4.90;;;742.60;2227.20;;;;;;5074644;28;20031;-81
2023/08/29 09:49:45;;;;;;;7.97;4.60;;;742.80;2201.60;;;;;;5055754;28;20040;-81
2023/08/29 09:52:13;;;;;;;8.20;4.95;;;743.00;2201.60;;;;;;5051948;28;20464;-81
2023/08/29 09:54:47;;;;;;;6.32;4.53;;;742.90;2201.60;;;;;;5072617;28;20107;-80
2023/08/29 09:57:21;;;;;;;7.75;4.80;;;742.60;2227.20;;;;;;5052590;28;20029;-82
2023/08/29 09:59:51;;;;;;;7.68;4.20;;;742.80;2176.00;;;;;;5066810;28;20042;-81
2023/08/29 10:02:20;;;;;;;8.65;4.30;;;742.70;2073.60;;;;;;5053665;28;20131;-84
2023/08/29 10:05:08;;;;;;;6.07;4.32;;;768.00;2073.60;;;;;;5074051;28;20036;-79
2023/08/29 10:07:47;;;;;;;8.00;4.70;;;768.00;2099.20;;;;;;5052597;28;20162;-81
2023/08/29 10:10:13;;;;;;;8.95;4.95;;;;;;;;;;5035732;28;20049;-81
2023/08/29 10:12:40;;;;;;;9.07;5.07;;;;;;;;;;5073588;28;20033;-81
2023/08/29 10:15:08;;;;;;;8.18;5.30;;;;;;;;;;5052476;28;20029;-82
2023/08/29 10:17:35;;;;;;;9.68;4.78;;;;;;;;;;5055292;28;20119;-82
2023/08/29 10:20:09;;;;;;;8.63;4.32;;;;;;;;;;5052281;28;20040;-84
2023/08/29 10:22:36;;;;;;;;;;;;;;;;;;5073643;28;20025;-82
2023/08/29 10:25:03;;;;;;;8.05;4.40;;;;;;;;;;5074007;28;20047;-81
2023/08/29 10:27:31;;;;;;;7.18;4.22;;;;;;;;;;5074392;28;20024;-81
2023/08/29 10:29:57;;;;;;;7.13;4.28;;;;;;;;;;5073929;28;20020;-81
2023/08/29 10:32:24;;;;;;;6.97;4.03;;;;;;;;;;5053132;28;20040;-82
2023/08/29 10:34:51;;;;;;;7.80;4.20;;;;;;;;;;5074341;28;20020;-83
2023/08/29 10:37:19;;;;;;;6.68;4.18;;;;;;;;;;5052786;28;20037;-81
2023/08/29 10:39:45;;;;;;;7.32;4.70;;;;;;;;;;5053485;28;20029;-81
2023/08/29 10:42:16;;;;;;;7.90;5.00;;;;;;;;;;5075668;28;20031;-87
2023/08/29 10:44:46;;;;;;;7.30;4.28;;;;;;;;;;5078042;28;20024;-82
2023/08/29 10:47:23;;;;;;;7.00;4.07;;;;;;;;;;5078557;28;20040;-80
2023/08/29 10:49:56;;;;;;;6.78;4.18;;;;;;;;;;5078868;28;20082;-82
2023/08/29 10:52:22;;;;;;;8.63;3.90;;;;;;;;;;5057954;28;20418;-82
2023/08/29 10:55:01;;;;;;;7.47;4.25;;;;;;;;;;5055961;28;20037;-82
2023/08/29 10:57:29;;;;;;;7.15;3.63;;;;;;;;;;5057660;28;20079;-83
2023/08/29 10:59:55;;;;;;;6.45;4.03;;;;;;;;;;5077840;28;20021;-83
2023/08/29 11:02:29;;;;;;;7.18;3.80;;;;;;;;;;5057455;28;20037;-82
2023/08/29 11:05:07;;;;;;;8.13;3.63;;;;;;;;;;5056050;28;20643;-81
2023/08/29 11:07:34;;;;;;;7.43;4.07;;;;;;;;;;5057783;28;20041;-81
2023/08/29 11:10:22;;;;;;;7.40;3.50;;;;;;;;;;5077136;28;20477;-81
2023/08/29 11:13:09;;;;;;;8.73;3.80;;;;;;;;;;5077563;28;20033;-82
2023/08/29 11:15:50;;;;;;;6.53;3.60;;;;;;;;;;5057736;28;20037;-80
2023/08/29 11:18:20;;;;;;;7.80;3.30;;;;;;;;;;5076514;28;20031;-81
2023/08/29 11:20:46;;;;;;;4.95;3.50;;;844.90;1561.60;;;;;;5077104;28;20040;-82
2023/08/29 11:23:14;;;;;;;6.38;3.80;;;;;;;;;;5078212;28;20415;-82
2023/08/29 11:25:40;;;;;;;5.75;3.50;;;;;;;;;;5078210;28;20050;-82
2023/08/29 11:28:06;;;;;;;7.63;3.95;;;;;;;;;;5077233;28;20029;-81
2023/08/29 11:30:33;;;;;;;7.07;3.28;;;;;;;;;;5057947;28;20025;-81
2023/08/29 11:32:59;;;;;;;5.63;3.15;;;;;;;;;;5055084;28;20045;-80
2023/08/29 11:35:28;;;;;;;4.63;2.22;;;;;;;;;;5073729;28;20027;-79
2023/08/29 11:37:54;;;;;;;5.13;2.53;;;;;;;;;;5077094;28;20021;-82
2023/08/29 11:40:21;;;;;;;4.25;2.00;;;845.40;1356.80;;;;;;5077522;28;20032;-82
2023/08/29 11:42:51;;;;;;;6.00;2.60;;;;;;;;;;5056320;28;20040;-83
2023/08/29 11:45:17;;;;;;;4.90;2.58;;;;;;;;;;5055219;28;20037;-82
2023/08/29 11:47:43;;;;;;;9.40;3.35;;;;;;;;;;5076862;28;20074;-83
2023/08/29 11:50:11;;;;;;;4.10;2.35;;;;;;;;;;5058863;28;20036;-83
2023/08/29 11:52:38;;;;;;;7.75;2.10;;;;;;;;;;5078907;28;20189;-82
2023/08/29 11:55:08;;;;;;;4.65;1.90;;;;;;;;;;5081141;28;20037;-86
2023/08/29 11:57:35;;;;;;;4.47;2.30;;;;;;;;;;5061286;28;20040;-83
2023/08/29 12:00:01;;;;;;;5.85;2.03;;;;;;;;;;5061585;28;20083;-90
2023/08/29 12:02:31;;;;;;;6.00;2.22;;;;;;;;;;5060061;28;20033;-84
2023/08/29 12:04:57;;;;;;;5.30;2.30;;;;;;;;;;5059810;28;20025;-89
2023/08/29 12:07:24;;;;;;;4.55;2.20;;;;;;;;;;5080548;28;20021;-82
2023/08/29 12:09:52;;;;;;;4.22;2.22;;;;;;;;;;5081725;28;20044;-85
2023/08/29 12:12:28;;;;;;;6.35;2.50;;;;;;;;;;5060496;28;20100;-88
2023/08/29 12:14:54;;;;;;;5.22;2.13;;;;;;;;;;5080363;28;20025;-85
2023/08/29 12:17:20;;;;;;;3.13;1.80;;;;;;;;;;5080155;28;20024;-85
2023/08/29 12:19:49;;;;;;;3.95;1.90;;;;;;;;;;5082458;28;20387;-86
2023/08/29 12:22:19;;;;;;;5.68;1.83;;;;;;;;;;5084062;28;20025;-83
2023/08/29 12:24:55;;;;;;;7.10;2.40;;;;;;;;;;5062970;28;20045;-83
2023/08/29 12:27:21;;;;;;;4.40;1.90;;;;;;;;;;5078629;28;20029;-86
2023/08/29 12:29:47;;;;;;;4.63;2.25;;;;;;;;;;5078118;28;20022;-83
2023/08/29 12:32:16;;;;;;;4.30;2.10;;;;;;;;;;5056128;28;20098;-84
2023/08/29 12:34:43;;;;;;;4.28;2.60;;;;;;;;;;5070400;28;20024;-89
2023/08/29 12:37:11;;;;;;;6.38;2.30;;;;;;;;;;5058992;28;20040;-84
2023/08/29 12:39:37;;;;;;;4.22;2.20;;;;;;;;;;5078572;28;20033;-85
2023/08/29 12:42:04;;;;;;;4.70;2.35;;;;;;;;;;5057710;28;20032;-84
2023/08/29 12:44:30;;;;;;;5.85;2.20;;;;;;;;;;5080976;28;20040;-91
2023/08/29 12:50:00;;;;;;;6.65;2.40;;;;;;;;;;5080545;28;20095;-86
2023/08/29 12:52:26;;;;;;;3.65;2.20;;;;;;;;;;5061813;28;20041;-90
2023/08/29 12:54:52;;;;;;;5.82;2.28;;;;;;;;;;5080585;28;20031;-82
2023/08/29 12:57:21;;;;;;;4.50;2.40;;;;;;;;;;5076868;28;20044;-84
2023/08/29 12:59:47;;;;;;;3.58;2.20;;;;;;;;;;5075933;28;20028;-83
2023/08/29 13:02:13;;;;;;;6.20;2.17;;;;;;;;;;5055142;28;20041;-82
2023/08/29 13:04:39;;;;;;;3.80;2.22;;;;;;;;;;5060008;28;20060;-82
2023/08/29 13:07:05;;;;;;;4.47;2.35;;;;;;;;;;5077519;28;20028;-84
2023/08/29 13:09:31;;;;;;;6.38;2.35;;;;;;;;;;5077924;28;20083;-82
2023/08/29 13:11:57;;;;;;;4.32;2.30;;;;;;;;;;5078069;28;20029;-86
2023/08/29 13:14:24;;;;;;;5.32;2.20;;;;;;;;;;5077341;28;20032;-83
2023/08/29 13:16:50;;;;;;;5.80;2.55;;;;;;;;;;5077110;28;20024;-84
2023/08/29 13:19:19;;;;;;;4.97;2.40;;;;;;;;;;5078030;28;20035;-86
2023/08/29 13:21:45;;;;;;;4.72;2.40;;;;;;;;;;5055965;28;20033;-85
2023/08/29 13:24:11;;;;;;;4.10;2.20;;;;;;;;;;5055908;28;20045;-85
2023/08/29 13:26:37;;;;;;;4.97;2.40;;;;;;;;;;5079047;28;20530;-88
2023/08/29 13:29:03;;;;;;;8.68;2.88;;;;;;;;;;5080225;28;20112;-83
2023/08/29 13:31:42;;;;;;;8.40;2.58;;;;;;;;;;5057116;28;20044;-84
2023/08/29 13:34:08;;;;;;;4.22;2.25;;;;;;;;;;5033899;28;20090;-84
2023/08/29 13:36:35;;;;;;;4.70;2.38;;;;;;;;;;5058730;28;20029;-82
2023/08/29 13:39:01;;;;;;;5.07;2.70;;;;;;;;;;5056833;28;20044;-84
2023/08/29 13:41:27;;;;;;;5.05;2.40;;;;;;;;;;5039669;28;20029;-86
2023/08/29 13:43:53;;;;;;;4.45;2.30;;;;;;;;;;5058206;28;20112;-82
2023/08/29 13:46:22;;;;;;;6.03;2.30;;;;;;;;;;5058618;28;20037;-81
2023/08/29 13:48:48;;;;;;;5.40;2.30;;;;;;;;;;5039890;28;20025;-83
2023/08/29 13:51:14;;;;;;;4.38;2.70;;;;;;;;;;5040710;28;20025;-83
2023/08/29 13:53:40;;;;;;;5.10;2.60;;;;;;;;;;5058845;28;20025;-81
2023/08/29 13:56:06;;;;;;;6.60;2.60;;;;;;;;;;5057943;28;20025;-80
2023/08/29 13:58:32;;;;;;;4.07;2.22;;;;;;;;;;5059964;28;20029;-82